createdAt,value
2022-11-20T00:01:39.106Z,-0.20
2022-11-20T00:04:06.124Z,-0.10
2022-11-20T00:06:33.079Z,0.00
2022-11-20T00:09:13.783Z,0.00
2022-11-20T00:11:40.806Z,0.20
2022-11-20T00:14:10.521Z,0.10
2022-11-20T00:16:41.545Z,0.20
2022-11-20T00:19:15.275Z,0.20
2022-11-20T00:21:42.286Z,0.20
2022-11-20T00:24:10.362Z,0.30
2022-11-20T00:26:37.602Z,0.30
2022-11-20T00:29:04.601Z,0.30
2022-11-20T00:31:31.678Z,0.20
2022-11-20T00:33:58.698Z,0.20
2022-11-20T00:36:26.801Z,0.20
2022-11-20T00:38:54.769Z,0.10
2022-11-20T00:41:22.159Z,0.10
2022-11-20T00:43:49.227Z,0.10
2022-11-20T00:46:18.016Z,0.10
2022-11-20T00:48:45.025Z,0.10
2022-11-20T00:51:13.104Z,0.00
2022-11-20T00:53:40.053Z,0.00
2022-11-20T00:56:08.467Z,0.00
2022-11-20T00:58:37.062Z,-0.10
2022-11-20T01:01:12.145Z,-0.10
2022-11-20T01:03:43.713Z,-0.10
2022-11-20T01:06:21.665Z,-0.10
2022-11-20T01:08:49.040Z,-0.20
2022-11-20T01:11:21.095Z,-0.20
2022-11-20T01:13:50.593Z,-0.20
2022-11-20T01:16:22.251Z,-0.20
2022-11-20T01:18:51.082Z,-0.20
2022-11-20T01:21:19.288Z,-0.30
2022-11-20T01:23:46.606Z,-0.30
2022-11-20T01:26:15.272Z,-0.20
2022-11-20T01:28:42.876Z,-0.30
2022-11-20T01:31:14.049Z,-0.20
2022-11-20T01:33:41.439Z,-0.30
2022-11-20T01:36:08.849Z,-0.30
2022-11-20T01:38:35.946Z,-0.30
2022-11-20T01:41:02.846Z,-0.30
2022-11-20T01:43:29.876Z,-0.30
2022-11-20T01:45:59.901Z,-0.30
2022-11-20T01:48:31.466Z,-0.30
2022-11-20T01:50:58.440Z,-0.40
2022-11-20T01:53:27.871Z,-0.40
2022-11-20T01:55:56.068Z,-0.50
2022-11-20T01:58:26.904Z,-0.50
2022-11-20T02:00:53.866Z,-0.50
2022-11-20T02:03:21.065Z,-0.50
2022-11-20T02:06:11.099Z,-0.60
2022-11-20T02:08:38.684Z,-0.60
2022-11-20T02:11:05.833Z,-0.60
2022-11-20T02:13:45.441Z,-0.60
2022-11-20T02:16:31.446Z,-0.60
2022-11-20T02:18:59.920Z,-0.60
2022-11-20T02:21:32.761Z,-0.60
2022-11-20T02:24:05.487Z,-0.60
2022-11-20T02:26:43.819Z,-0.60
2022-11-20T02:29:15.594Z,-0.70
2022-11-20T02:31:43.452Z,-0.70
2022-11-20T02:34:10.483Z,-0.70
2022-11-20T02:36:37.779Z,-0.70
2022-11-20T02:39:05.868Z,-0.70
2022-11-20T02:41:34.420Z,-0.70
2022-11-20T02:44:01.725Z,-0.70
2022-11-20T02:46:28.840Z,-0.70
2022-11-20T02:48:55.973Z,-0.70
2022-11-20T02:51:22.916Z,-0.70
2022-11-20T02:53:49.938Z,-0.70
2022-11-20T02:56:16.906Z,-0.70
2022-11-20T02:58:43.857Z,-0.60
2022-11-20T03:01:10.822Z,-0.60
2022-11-20T03:03:37.871Z,-0.60
2022-11-20T03:06:34.166Z,-0.60
2022-11-20T03:09:01.989Z,-0.70
2022-11-20T03:11:29.273Z,-0.70
2022-11-20T03:13:56.224Z,-0.70
2022-11-20T03:16:23.533Z,-0.70
2022-11-20T03:18:50.781Z,-0.70
2022-11-20T03:21:17.818Z,-0.70
2022-11-20T03:23:44.880Z,-0.70
2022-11-20T03:26:16.785Z,-0.70
2022-11-20T03:28:47.796Z,-0.70
2022-11-20T03:31:15.618Z,-0.70
2022-11-20T03:33:42.842Z,-0.70
2022-11-20T03:36:11.778Z,-0.70
2022-11-20T03:38:38.950Z,-0.60
2022-11-20T03:41:07.916Z,-0.60
2022-11-20T03:43:35.070Z,-0.50
2022-11-20T03:46:02.361Z,-0.60
2022-11-20T03:48:29.443Z,-0.60
2022-11-20T03:51:12.664Z,-0.60
2022-11-20T03:53:40.629Z,-0.60
2022-11-20T03:56:08.441Z,-0.60
2022-11-20T03:58:38.099Z,-0.50
2022-11-20T04:01:15.941Z,-0.50
2022-11-20T04:03:43.264Z,-0.50
2022-11-20T04:06:11.953Z,-0.40
2022-11-20T04:08:39.078Z,-0.40
2022-11-20T04:11:15.813Z,-0.40
2022-11-20T04:13:43.153Z,-0.30
2022-11-20T04:16:10.562Z,-0.30
2022-11-20T04:18:37.489Z,-0.30
2022-11-20T04:21:05.249Z,-0.30
2022-11-20T04:23:32.239Z,-0.20
2022-11-20T04:26:10.113Z,-0.20
2022-11-20T04:28:37.353Z,-0.20
2022-11-20T04:31:05.813Z,-0.20
2022-11-20T04:33:34.387Z,-0.20
2022-11-20T04:36:09.165Z,-0.20
2022-11-20T04:38:36.205Z,-0.20
2022-11-20T04:41:05.078Z,-0.20
2022-11-20T04:43:32.478Z,-0.20
2022-11-20T04:45:59.740Z,-0.20
2022-11-20T04:48:27.207Z,-0.20
2022-11-20T04:50:54.319Z,-0.20
2022-11-20T04:53:21.277Z,-0.20
2022-11-20T04:55:48.321Z,-0.30
2022-11-20T04:58:15.273Z,-0.20
2022-11-20T05:00:42.275Z,-0.30
2022-11-20T05:03:10.276Z,-0.30
2022-11-20T05:05:37.258Z,-0.30
2022-11-20T05:08:04.698Z,-0.40
2022-11-20T05:10:31.706Z,-0.50
2022-11-20T05:12:58.628Z,-0.60
2022-11-20T05:15:25.855Z,-0.60
2022-11-20T05:17:53.115Z,-0.60
2022-11-20T05:20:20.344Z,-0.70
2022-11-20T05:22:47.265Z,-0.70
2022-11-20T05:25:14.239Z,-0.80
2022-11-20T05:27:41.119Z,-0.70
2022-11-20T05:30:08.859Z,-0.60
2022-11-20T05:32:35.821Z,-0.60
2022-11-20T05:35:02.803Z,-0.50
2022-11-20T05:37:29.793Z,-0.50
2022-11-20T05:39:56.771Z,-0.50
2022-11-20T05:42:40.872Z,-0.50
2022-11-20T05:45:11.232Z,-0.50
2022-11-20T05:47:38.218Z,-0.50
2022-11-20T05:50:05.517Z,-0.50
2022-11-20T05:52:32.498Z,-0.40
2022-11-20T05:55:03.036Z,-0.40
2022-11-20T05:57:29.993Z,-0.40
2022-11-20T05:59:57.088Z,-0.40
2022-11-20T06:02:24.160Z,-0.40
2022-11-20T06:04:51.185Z,-0.40
2022-11-20T06:07:18.570Z,-0.60
2022-11-20T06:09:47.863Z,-0.70
2022-11-20T06:12:14.854Z,-0.60
2022-11-20T06:14:41.950Z,-0.80
2022-11-20T06:17:09.064Z,-0.80
2022-11-20T06:19:36.013Z,-0.80
2022-11-20T06:22:03.015Z,-0.70
2022-11-20T06:24:29.981Z,-0.70
2022-11-20T06:26:56.922Z,-0.80
2022-11-20T06:29:24.110Z,-0.80
2022-11-20T06:31:51.382Z,-0.80
2022-11-20T06:34:18.349Z,-0.80
2022-11-20T06:36:45.300Z,-0.70
2022-11-20T06:39:12.304Z,-0.70
2022-11-20T06:41:39.262Z,-0.80
2022-11-20T06:44:06.654Z,-0.70
2022-11-20T06:46:33.663Z,-0.80
2022-11-20T06:49:00.588Z,-0.70
2022-11-20T06:51:27.690Z,-0.60
2022-11-20T06:53:54.697Z,-0.60
2022-11-20T06:56:21.599Z,-0.60
2022-11-20T06:58:48.710Z,-0.60
2022-11-20T07:01:16.063Z,-0.50
2022-11-20T07:03:43.098Z,-0.40
2022-11-20T07:06:10.043Z,-0.40
2022-11-20T07:08:37.086Z,-0.30
2022-11-20T07:11:06.440Z,-0.20
2022-11-20T07:13:33.486Z,-0.20
2022-11-20T07:16:01.930Z,-0.30
2022-11-20T07:18:29.086Z,-0.30
2022-11-20T07:20:56.365Z,-0.20
2022-11-20T07:23:23.354Z,-0.20
2022-11-20T07:25:50.326Z,-0.10
2022-11-20T07:28:17.410Z,-0.10
2022-11-20T07:30:44.406Z,0.00
2022-11-20T07:33:11.312Z,0.00
2022-11-20T07:35:38.367Z,0.00
2022-11-20T07:38:05.426Z,0.10
2022-11-20T07:40:32.445Z,0.20
2022-11-20T07:42:59.427Z,0.20
2022-11-20T07:45:26.625Z,0.20
2022-11-20T07:47:56.450Z,0.30
2022-11-20T07:50:23.418Z,0.30
2022-11-20T07:52:50.433Z,0.40
2022-11-20T07:55:17.919Z,0.40
2022-11-20T07:57:44.912Z,0.50
2022-11-20T08:00:12.717Z,0.50
2022-11-20T08:02:43.088Z,0.50
2022-11-20T08:05:10.322Z,0.50
2022-11-20T08:07:41.572Z,0.60
2022-11-20T08:10:09.637Z,0.60
2022-11-20T08:12:55.069Z,0.60
2022-11-20T08:15:22.138Z,0.60
2022-11-20T08:18:15.352Z,0.60
2022-11-20T08:20:36.286Z,0.70
2022-11-20T08:23:04.424Z,0.70
2022-11-20T08:25:31.474Z,0.70
2022-11-20T08:28:00.413Z,0.70
2022-11-20T08:30:28.473Z,0.70
2022-11-20T08:32:55.625Z,0.70
2022-11-20T08:35:23.021Z,0.70
2022-11-20T08:37:50.082Z,0.70
2022-11-20T08:40:19.684Z,0.70
2022-11-20T08:42:50.703Z,0.80
2022-11-20T08:45:18.331Z,0.80
2022-11-20T08:47:45.563Z,0.70
2022-11-20T08:50:13.282Z,0.70
2022-11-20T08:52:40.432Z,0.70
2022-11-20T08:55:09.822Z,0.80
2022-11-20T08:57:37.222Z,0.80
2022-11-20T09:00:08.416Z,0.90
2022-11-20T09:02:36.287Z,0.90
2022-11-20T09:05:03.553Z,0.90
2022-11-20T09:07:31.224Z,0.90
2022-11-20T09:10:16.831Z,0.80
2022-11-20T09:12:45.320Z,0.70
2022-11-20T09:15:12.779Z,0.60
2022-11-20T09:17:39.721Z,0.60
2022-11-20T09:20:07.042Z,0.60
2022-11-20T09:22:34.239Z,0.70
2022-11-20T09:25:01.180Z,0.70
2022-11-20T09:27:28.144Z,0.80
2022-11-20T09:29:55.089Z,0.90
2022-11-20T09:32:22.073Z,0.90
2022-11-20T09:34:49.061Z,1.00
2022-11-20T09:37:16.121Z,0.80
2022-11-20T09:39:43.107Z,0.90
2022-11-20T09:42:33.435Z,0.90
2022-11-20T09:45:06.730Z,1.00
2022-11-20T09:47:49.227Z,1.10
2022-11-20T09:50:41.639Z,1.20
2022-11-20T09:53:14.461Z,1.30
2022-11-20T09:55:41.479Z,1.30
2022-11-20T09:58:13.093Z,1.40
2022-11-20T10:00:40.124Z,1.50
2022-11-20T10:03:22.554Z,1.60
2022-11-20T10:05:52.254Z,1.70
2022-11-20T10:08:31.636Z,1.70
2022-11-20T10:11:27.756Z,1.90
2022-11-20T10:14:30.483Z,1.90
2022-11-20T10:17:03.235Z,2.00
2022-11-20T10:19:43.945Z,2.00
2022-11-20T10:23:02.278Z,2.20
2022-11-20T10:25:44.575Z,2.30
2022-11-20T10:28:41.609Z,2.40
2022-11-20T10:31:15.456Z,2.40
2022-11-20T10:34:10.364Z,2.50
2022-11-20T10:36:35.030Z,2.50
2022-11-20T10:39:15.858Z,2.50
2022-11-20T10:41:42.950Z,2.60
2022-11-20T10:44:36.758Z,2.60
2022-11-20T10:47:05.818Z,2.60
2022-11-20T10:49:34.140Z,2.60
2022-11-20T10:52:20.210Z,2.60
2022-11-20T10:55:15.599Z,2.70
2022-11-20T10:58:16.690Z,2.70
2022-11-20T11:00:43.796Z,2.80
2022-11-20T11:03:23.946Z,2.80
2022-11-20T11:06:33.101Z,2.90
2022-11-20T11:09:02.370Z,2.90
2022-11-20T11:11:31.268Z,2.90
2022-11-20T11:14:11.570Z,2.80
2022-11-20T11:16:53.326Z,2.90
2022-11-20T11:19:20.721Z,2.90
2022-11-20T11:21:55.978Z,2.80
2022-11-20T11:24:41.514Z,2.90
2022-11-20T11:27:17.286Z,3.00
2022-11-20T11:29:45.237Z,3.10
2022-11-20T11:32:15.286Z,3.10
2022-11-20T11:34:42.374Z,3.10
2022-11-20T11:37:18.574Z,3.20
2022-11-20T11:39:45.605Z,3.20
2022-11-20T11:42:18.523Z,3.20
2022-11-20T11:45:04.831Z,3.20
2022-11-20T11:47:32.699Z,3.20
2022-11-20T11:50:18.184Z,3.20
2022-11-20T11:53:03.501Z,3.30
2022-11-20T11:55:48.070Z,3.30
2022-11-20T11:58:21.162Z,3.40
2022-11-20T12:00:58.116Z,3.40
2022-11-20T12:03:43.754Z,3.40
2022-11-20T12:06:17.512Z,3.60
2022-11-20T12:08:57.339Z,3.60
2022-11-20T12:11:54.075Z,3.70
2022-11-20T12:14:40.346Z,3.90
2022-11-20T12:17:12.030Z,3.90
2022-11-20T12:19:39.030Z,4.00
2022-11-20T12:22:31.208Z,4.00
2022-11-20T12:25:15.860Z,4.10
2022-11-20T12:27:52.840Z,4.10
2022-11-20T12:30:20.420Z,3.90
2022-11-20T12:33:18.566Z,3.90
2022-11-20T12:36:00.725Z,4.00
2022-11-20T12:38:30.723Z,3.90
2022-11-20T12:41:53.654Z,3.90
2022-11-20T12:44:54.519Z,3.90
2022-11-20T12:48:11.804Z,3.90
2022-11-20T12:51:17.687Z,3.90
2022-11-20T12:53:49.965Z,3.90
2022-11-20T12:56:45.560Z,4.00
2022-11-20T12:59:27.046Z,4.10
2022-11-20T13:02:11.910Z,4.00
2022-11-20T13:04:59.998Z,4.00
2022-11-20T13:07:27.143Z,4.00
2022-11-20T13:09:54.249Z,3.80
2022-11-20T13:12:26.299Z,3.80
2022-11-20T13:15:12.892Z,3.80
2022-11-20T13:17:59.302Z,3.70
2022-11-20T13:20:26.302Z,3.70
2022-11-20T13:22:55.713Z,3.70
2022-11-20T13:25:51.461Z,3.70
2022-11-20T13:28:18.791Z,3.80
2022-11-20T13:30:55.508Z,3.70
2022-11-20T13:33:32.453Z,3.80
2022-11-20T13:36:03.193Z,3.70
2022-11-20T13:38:45.105Z,3.70
2022-11-20T13:41:30.102Z,3.70
2022-11-20T13:44:09.197Z,3.70
2022-11-20T13:46:46.850Z,3.70
2022-11-20T13:49:27.103Z,3.80
2022-11-20T13:52:41.909Z,3.80
2022-11-20T13:55:31.679Z,3.70
2022-11-20T13:58:07.239Z,3.70
2022-11-20T14:00:34.375Z,3.70
2022-11-20T14:03:07.396Z,3.70
2022-11-20T14:05:39.651Z,3.70
2022-11-20T14:08:07.726Z,3.70
2022-11-20T14:10:34.880Z,3.70
2022-11-20T14:13:16.789Z,3.70
2022-11-20T14:15:45.211Z,3.70
2022-11-20T14:18:20.168Z,3.70
2022-11-20T14:20:48.551Z,3.60
2022-11-20T14:23:29.504Z,3.60
2022-11-20T14:25:58.038Z,3.70
2022-11-20T14:28:27.600Z,3.70
2022-11-20T14:30:54.923Z,3.70
2022-11-20T14:33:25.819Z,3.60
2022-11-20T14:35:54.498Z,3.60
2022-11-20T14:38:25.075Z,3.60
2022-11-20T14:40:52.031Z,3.60
2022-11-20T14:43:26.700Z,3.60
2022-11-20T14:46:03.745Z,3.60
2022-11-20T14:48:39.462Z,3.40
2022-11-20T14:51:06.559Z,3.50
2022-11-20T14:53:33.517Z,3.50
2022-11-20T14:56:01.852Z,3.50
2022-11-20T14:58:30.595Z,3.50
2022-11-20T15:01:03.134Z,3.50
2022-11-20T15:03:37.987Z,3.50
2022-11-20T15:06:06.380Z,3.60
2022-11-20T15:08:33.559Z,3.60
2022-11-20T15:11:00.526Z,3.60
2022-11-20T15:13:33.130Z,3.70
2022-11-20T15:16:01.547Z,3.70
2022-11-20T15:18:40.076Z,3.70
2022-11-20T15:21:17.533Z,3.70
2022-11-20T15:23:44.718Z,3.70
2022-11-20T15:26:18.447Z,3.70
2022-11-20T15:28:48.743Z,3.70
2022-11-20T15:31:17.738Z,3.70
2022-11-20T15:33:44.887Z,3.70
2022-11-20T15:36:11.977Z,3.70
2022-11-20T15:38:39.182Z,3.70
2022-11-20T15:41:06.287Z,3.70
2022-11-20T15:43:33.294Z,3.70
2022-11-20T15:46:23.569Z,3.70
2022-11-20T15:48:57.648Z,3.70
2022-11-20T15:51:29.251Z,3.70
2022-11-20T15:53:56.523Z,3.70
2022-11-20T15:56:23.569Z,3.70
2022-11-20T15:58:50.576Z,3.70
2022-11-20T16:01:19.419Z,3.70
2022-11-20T16:03:46.562Z,3.60
2022-11-20T16:06:13.626Z,3.70
2022-11-20T16:08:40.751Z,3.60
2022-11-20T16:11:13.124Z,3.60
2022-11-20T16:14:00.782Z,3.50
2022-11-20T16:16:37.524Z,3.50
2022-11-20T16:19:06.252Z,3.40
2022-11-20T16:21:33.281Z,3.40
2022-11-20T16:24:01.259Z,3.30
2022-11-20T16:26:28.309Z,3.30
2022-11-20T16:28:55.754Z,3.30
2022-11-20T16:31:22.846Z,3.30
2022-11-20T16:33:50.907Z,3.20
2022-11-20T16:36:18.179Z,3.20
2022-11-20T16:38:45.253Z,3.20
2022-11-20T16:41:15.045Z,3.10
2022-11-20T16:43:47.969Z,3.00
2022-11-20T16:46:18.285Z,3.00
2022-11-20T16:48:45.664Z,2.90
2022-11-20T16:51:14.490Z,2.90
2022-11-20T16:53:42.874Z,2.80
2022-11-20T16:56:14.016Z,2.80
2022-11-20T16:58:40.948Z,2.70
2022-11-20T17:01:10.710Z,2.70
2022-11-20T17:03:39.580Z,2.70
2022-11-20T17:06:19.212Z,2.70
2022-11-20T17:08:49.471Z,2.70
2022-11-20T17:11:18.352Z,2.70
2022-11-20T17:13:45.485Z,2.70
2022-11-20T17:16:22.856Z,2.70
2022-11-20T17:18:52.600Z,2.70
2022-11-20T17:21:19.786Z,2.70
2022-11-20T17:23:47.109Z,2.70
2022-11-20T17:26:17.667Z,2.70
2022-11-20T17:29:01.180Z,2.70
2022-11-20T17:31:28.666Z,2.70
2022-11-20T17:33:55.666Z,2.70
2022-11-20T17:36:22.913Z,2.70
2022-11-20T17:38:49.876Z,2.70
2022-11-20T17:41:18.829Z,2.70
2022-11-20T17:43:46.027Z,2.70
2022-11-20T17:46:17.576Z,2.70
2022-11-20T17:48:44.865Z,2.70
2022-11-20T17:51:14.018Z,2.70
2022-11-20T17:53:42.428Z,2.70
2022-11-20T17:56:28.209Z,2.70
2022-11-20T17:58:55.287Z,2.70
2022-11-20T18:01:22.486Z,2.70
2022-11-20T18:03:49.745Z,2.70
2022-11-20T18:06:21.217Z,2.70
2022-11-20T18:08:48.441Z,2.70
2022-11-20T18:11:23.378Z,2.70
2022-11-20T18:14:10.324Z,2.70
2022-11-20T18:16:39.175Z,2.70
2022-11-20T18:19:06.087Z,2.60
2022-11-20T18:21:33.749Z,2.60
2022-11-20T18:24:00.722Z,2.60
2022-11-20T18:26:27.714Z,2.60
2022-11-20T18:28:54.804Z,2.50
2022-11-20T18:31:21.825Z,2.60
2022-11-20T18:33:48.870Z,2.60
2022-11-20T18:36:20.261Z,2.60
2022-11-20T18:38:48.594Z,2.70
2022-11-20T18:41:35.818Z,2.70
2022-11-20T18:44:22.571Z,2.70
2022-11-20T18:46:49.655Z,2.60
2022-11-20T18:49:16.622Z,2.60
2022-11-20T18:51:46.584Z,2.70
2022-11-20T18:54:13.806Z,2.60
2022-11-20T18:56:40.940Z,2.60
2022-11-20T18:59:09.119Z,2.70
2022-11-20T19:01:36.442Z,2.70
2022-11-20T19:04:11.639Z,2.70
2022-11-20T19:06:39.030Z,2.70
2022-11-20T19:09:08.871Z,2.70
2022-11-20T19:11:36.378Z,2.70
2022-11-20T19:14:04.392Z,2.80
2022-11-20T19:16:31.650Z,2.80
2022-11-20T19:19:05.516Z,2.80
2022-11-20T19:21:32.954Z,2.80
2022-11-20T19:24:01.723Z,2.80
2022-11-20T19:26:34.916Z,2.80
2022-11-20T19:29:04.390Z,2.80
2022-11-20T19:31:31.387Z,2.70
2022-11-20T19:34:01.588Z,2.70
2022-11-20T19:36:30.549Z,2.70
2022-11-20T19:39:29.182Z,2.80
2022-11-20T19:41:58.544Z,2.80
2022-11-20T19:44:26.525Z,2.80
2022-11-20T19:46:53.829Z,2.90
2022-11-20T19:49:20.990Z,2.90
2022-11-20T19:51:49.427Z,2.90
2022-11-20T19:54:17.002Z,2.80
2022-11-20T19:56:45.556Z,2.70
2022-11-20T19:59:13.087Z,2.70
2022-11-20T20:01:40.265Z,2.70
2022-11-20T20:04:07.477Z,2.70
2022-11-20T20:06:36.470Z,2.80
2022-11-20T20:09:08.245Z,2.80
2022-11-20T20:11:36.694Z,2.80
2022-11-20T20:14:06.281Z,2.90
2022-11-20T20:16:34.361Z,2.90
2022-11-20T20:19:02.432Z,2.90
2022-11-20T20:21:30.672Z,2.90
2022-11-20T20:24:03.289Z,2.90
2022-11-20T20:27:44.298Z,2.80
2022-11-20T20:30:25.235Z,2.80
2022-11-20T20:32:56.311Z,2.70
2022-11-20T20:35:41.463Z,2.70
2022-11-20T20:38:08.581Z,2.80
2022-11-20T20:40:59.578Z,2.80
2022-11-20T20:43:56.271Z,2.90
2022-11-20T20:46:30.092Z,2.90
2022-11-20T20:49:07.878Z,2.90
2022-11-20T20:51:58.511Z,3.00
2022-11-20T20:54:34.601Z,3.00
2022-11-20T21:00:03.326Z,3.10
2022-11-20T21:07:36.241Z,3.10
2022-11-20T21:10:23.984Z,3.10
2022-11-20T21:12:51.261Z,3.10
2022-11-20T21:15:27.402Z,3.00
2022-11-20T21:17:54.583Z,3.00
2022-11-20T21:20:43.190Z,3.00
2022-11-20T21:23:10.531Z,3.10
2022-11-20T21:25:59.651Z,3.10
2022-11-20T21:28:51.382Z,3.10
2022-11-20T21:31:26.543Z,3.10
2022-11-20T21:33:57.821Z,3.10
2022-11-20T21:36:49.399Z,3.10
2022-11-20T21:39:17.155Z,3.10
2022-11-20T21:41:44.181Z,3.10
2022-11-20T21:44:33.364Z,3.10
2022-11-20T21:49:52.218Z,3.10
2022-11-20T21:52:22.386Z,3.10
2022-11-20T21:54:49.557Z,3.10
2022-11-20T21:57:16.571Z,3.10
2022-11-20T21:59:43.541Z,3.00
2022-11-20T22:02:13.177Z,3.00
2022-11-20T22:04:40.352Z,3.00
2022-11-20T22:07:07.401Z,2.90
2022-11-20T22:09:34.546Z,2.90
2022-11-20T22:12:01.473Z,2.80
2022-11-20T22:14:39.684Z,2.90
2022-11-20T22:17:06.892Z,2.80
2022-11-20T22:19:57.785Z,2.80
2022-11-20T22:22:25.315Z,2.80
2022-11-20T22:25:00.961Z,2.70
2022-11-20T22:27:37.850Z,2.70
2022-11-20T22:30:05.631Z,2.70
2022-11-20T22:32:35.945Z,2.70
2022-11-20T22:35:03.154Z,2.70
2022-11-20T22:37:37.024Z,2.70
2022-11-20T22:40:05.422Z,2.70
2022-11-20T22:42:36.857Z,2.70
2022-11-20T22:45:32.483Z,2.70
2022-11-20T22:48:08.321Z,2.80
2022-11-20T22:50:39.407Z,2.80
2022-11-20T22:53:06.386Z,2.80
2022-11-20T22:55:34.153Z,2.80
2022-11-20T22:58:01.186Z,2.80
2022-11-20T23:01:07.879Z,2.90
2022-11-20T23:03:55.611Z,2.90
2022-11-20T23:06:41.300Z,2.90
2022-11-20T23:09:08.876Z,2.90
2022-11-20T23:12:48.324Z,2.90
2022-11-20T23:15:15.417Z,2.90
2022-11-20T23:17:42.759Z,2.80
2022-11-20T23:20:35.409Z,2.80
2022-11-20T23:23:04.014Z,2.80
2022-11-20T23:25:40.472Z,2.80
2022-11-20T23:29:24.584Z,2.70
2022-11-20T23:31:51.616Z,2.70
2022-11-20T23:34:43.670Z,2.70
2022-11-20T23:37:10.674Z,2.60
2022-11-20T23:39:39.870Z,2.60
2022-11-20T23:42:06.848Z,2.60
2022-11-20T23:44:41.171Z,2.60
2022-11-20T23:47:18.664Z,2.60
2022-11-20T23:50:06.123Z,2.50
2022-11-20T23:52:36.922Z,2.50
2022-11-20T23:55:04.197Z,2.50
2022-11-20T23:57:33.873Z,2.40
